Commerce Park, Louisiana
Current Conditions -  °F | °C
As of 7:53 AM on Monday 26 Jan 2015 (Local Time) from KBTR Reporting Station
Clear Clear  
Wind Chill: 44°   Ceiling: Unl
Heat Index: 47°   Visibility: 10mi
Dew Point: 33°   Wind: 7mph
Humidity: 59%   Direction: 320°NW
Pressure: 30.15"   Gusts: NA
Location:  30.3786°N, 91.0974°W
Report Text: KBTR 261353Z 32006KT 10SM CLR 08/01 A3015 RMK AO2 SLP209 T00830006
Loading
Personal Weather Stations






























Interactive Weather Map New forecast layout! Learn more

10-Day Weather Forecast

Advertisements
Track Severe Weather on mobile